sensor_id;sensor_type;location;lat;lon;timestamp;temperature;humidity
67275;DHT22;55463;52.324;5.122;2024-02-04T00:02:07;9.74;99.99
67275;DHT22;55463;52.324;5.122;2024-02-04T00:04:34;9.74;99.99
67275;DHT22;55463;52.324;5.122;2024-02-04T00:07:01;9.70;99.99
67275;DHT22;55463;52.324;5.122;2024-02-04T00:09:26;9.70;99.99
67275;DHT22;55463;52.324;5.122;2024-02-04T00:11:53;9.66;99.99
67275;DHT22;55463;52.324;5.122;2024-02-04T00:14:19;9.66;99.99
67275;DHT22;55463;52.324;5.122;2024-02-04T00:16:44;9.63;99.99
67275;DHT22;55463;52.324;5.122;2024-02-04T00:19:10;9.65;99.99
67275;DHT22;55463;52.324;5.122;2024-02-04T00:21:35;9.65;99.99
67275;DHT22;55463;52.324;5.122;2024-02-04T00:24:01;9.62;99.99
67275;DHT22;55463;52.324;5.122;2024-02-04T00:26:27;9.60;99.99
67275;DHT22;55463;52.324;5.122;2024-02-04T00:28:53;9.62;99.99
67275;DHT22;55463;52.324;5.122;2024-02-04T00:31:18;9.65;99.99
67275;DHT22;55463;52.324;5.122;2024-02-04T00:33:44;9.60;99.99
67275;DHT22;55463;52.324;5.122;2024-02-04T00:36:09;9.57;99.99
67275;DHT22;55463;52.324;5.122;2024-02-04T00:38:34;9.59;99.99
67275;DHT22;55463;52.324;5.122;2024-02-04T00:41:00;9.60;99.99
67275;DHT22;55463;52.324;5.122;2024-02-04T00:43:25;9.57;99.99
67275;DHT22;55463;52.324;5.122;2024-02-04T00:45:51;9.56;99.99
67275;DHT22;55463;52.324;5.122;2024-02-04T00:48:19;9.59;99.99
67275;DHT22;55463;52.324;5.122;2024-02-04T00:50:44;9.59;99.99
67275;DHT22;55463;52.324;5.122;2024-02-04T00:53:13;9.57;99.99
67275;DHT22;55463;52.324;5.122;2024-02-04T00:55:38;9.55;99.99
67275;DHT22;55463;52.324;5.122;2024-02-04T00:58:04;9.57;99.99
67275;DHT22;55463;52.324;5.122;2024-02-04T01:00:29;9.53;99.99
67275;DHT22;55463;52.324;5.122;2024-02-04T01:02:55;9.49;99.99
67275;DHT22;55463;52.324;5.122;2024-02-04T01:05:20;9.48;99.99
67275;DHT22;55463;52.324;5.122;2024-02-04T01:07:46;9.42;99.99
67275;DHT22;55463;52.324;5.122;2024-02-04T01:10:11;9.36;99.99
67275;DHT22;55463;52.324;5.122;2024-02-04T01:12:37;9.31;99.99
67275;DHT22;55463;52.324;5.122;2024-02-04T01:15:02;9.21;99.99
67275;DHT22;55463;52.324;5.122;2024-02-04T01:17:30;9.15;99.99
67275;DHT22;55463;52.324;5.122;2024-02-04T01:19:56;9.12;99.99
67275;DHT22;55463;52.324;5.122;2024-02-04T01:22:21;9.08;99.99
67275;DHT22;55463;52.324;5.122;2024-02-04T01:24:51;9.07;99.99
67275;DHT22;55463;52.324;5.122;2024-02-04T01:27:17;9.00;99.99
67275;DHT22;55463;52.324;5.122;2024-02-04T01:29:42;8.99;99.99
67275;DHT22;55463;52.324;5.122;2024-02-04T01:32:08;8.99;99.99
67275;DHT22;55463;52.324;5.122;2024-02-04T01:34:33;8.96;99.99
67275;DHT22;55463;52.324;5.122;2024-02-04T01:36:59;8.88;99.99
67275;DHT22;55463;52.324;5.122;2024-02-04T01:39:24;8.87;99.99
67275;DHT22;55463;52.324;5.122;2024-02-04T01:41:50;8.87;99.99
67275;DHT22;55463;52.324;5.122;2024-02-04T01:44:16;8.81;99.99
67275;DHT22;55463;52.324;5.122;2024-02-04T01:46:43;8.83;99.99
67275;DHT22;55463;52.324;5.122;2024-02-04T01:49:10;8.83;99.99
67275;DHT22;55463;52.324;5.122;2024-02-04T01:51:36;8.79;99.99
67275;DHT22;55463;52.324;5.122;2024-02-04T01:54:02;8.77;99.99
67275;DHT22;55463;52.324;5.122;2024-02-04T01:56:28;8.80;99.99
67275;DHT22;55463;52.324;5.122;2024-02-04T01:58:54;8.79;99.99
67275;DHT22;55463;52.324;5.122;2024-02-04T02:01:20;8.77;99.99
67275;DHT22;55463;52.324;5.122;2024-02-04T02:03:46;8.75;99.99
67275;DHT22;55463;52.324;5.122;2024-02-04T02:06:15;8.76;99.99
67275;DHT22;55463;52.324;5.122;2024-02-04T02:08:41;8.73;99.99
67275;DHT22;55463;52.324;5.122;2024-02-04T02:11:19;8.72;99.99
67275;DHT22;55463;52.324;5.122;2024-02-04T02:13:51;8.72;99.99
67275;DHT22;55463;52.324;5.122;2024-02-04T02:16:20;8.72;99.99
67275;DHT22;55463;52.324;5.122;2024-02-04T02:18:58;8.67;99.99
67275;DHT22;55463;52.324;5.122;2024-02-04T02:24:14;8.63;99.99
67275;DHT22;55463;52.324;5.122;2024-02-04T02:26:44;8.63;99.99
67275;DHT22;55463;52.324;5.122;2024-02-04T02:29:09;8.60;99.99
67275;DHT22;55463;52.324;5.122;2024-02-04T02:31:38;8.57;99.99
67275;DHT22;55463;52.324;5.122;2024-02-04T02:34:06;8.56;99.71
67275;DHT22;55463;52.324;5.122;2024-02-04T02:37:03;8.55;99.85
67275;DHT22;55463;52.324;5.122;2024-02-04T02:39:42;8.55;99.74
67275;DHT22;55463;52.324;5.122;2024-02-04T02:42:11;8.50;99.90
67275;DHT22;55463;52.324;5.122;2024-02-04T02:44:38;8.49;99.71
67275;DHT22;55463;52.324;5.122;2024-02-04T02:47:05;8.42;99.74
67275;DHT22;55463;52.324;5.122;2024-02-04T02:49:32;8.41;99.90
67275;DHT22;55463;52.324;5.122;2024-02-04T02:51:57;8.37;99.99
67275;DHT22;55463;52.324;5.122;2024-02-04T02:54:23;8.34;99.99
67275;DHT22;55463;52.324;5.122;2024-02-04T02:56:48;8.32;99.99
67275;DHT22;55463;52.324;5.122;2024-02-04T02:59:13;8.31;99.99
67275;DHT22;55463;52.324;5.122;2024-02-04T03:01:39;8.31;99.99
67275;DHT22;55463;52.324;5.122;2024-02-04T03:04:05;8.32;99.99
67275;DHT22;55463;52.324;5.122;2024-02-04T03:06:31;8.37;99.99
67275;DHT22;55463;52.324;5.122;2024-02-04T03:08:56;8.38;99.99
67275;DHT22;55463;52.324;5.122;2024-02-04T03:11:22;8.44;99.99
67275;DHT22;55463;52.324;5.122;2024-02-04T03:13:47;8.41;99.99
67275;DHT22;55463;52.324;5.122;2024-02-04T03:16:13;8.45;99.99
67275;DHT22;55463;52.324;5.122;2024-02-04T03:18:42;8.44;99.99
67275;DHT22;55463;52.324;5.122;2024-02-04T03:21:12;8.46;99.99
67275;DHT22;55463;52.324;5.122;2024-02-04T03:23:38;8.46;99.99
67275;DHT22;55463;52.324;5.122;2024-02-04T03:26:04;8.45;99.99
67275;DHT22;55463;52.324;5.122;2024-02-04T03:28:29;8.44;99.99
67275;DHT22;55463;52.324;5.122;2024-02-04T03:30:55;8.44;99.99
67275;DHT22;55463;52.324;5.122;2024-02-04T03:33:20;8.42;99.99
67275;DHT22;55463;52.324;5.122;2024-02-04T03:35:45;8.44;99.90
67275;DHT22;55463;52.324;5.122;2024-02-04T03:38:11;8.44;99.82
67275;DHT22;55463;52.324;5.122;2024-02-04T03:40:36;8.42;99.90
67275;DHT22;55463;52.324;5.122;2024-02-04T03:43:02;8.41;99.97
67275;DHT22;55463;52.324;5.122;2024-02-04T03:45:27;8.42;99.63
67275;DHT22;55463;52.324;5.122;2024-02-04T03:47:53;8.39;99.50
67275;DHT22;55463;52.324;5.122;2024-02-04T03:50:18;8.42;99.41
67275;DHT22;55463;52.324;5.122;2024-02-04T03:52:44;8.41;99.02
67275;DHT22;55463;52.324;5.122;2024-02-04T03:55:09;8.38;98.95
67275;DHT22;55463;52.324;5.122;2024-02-04T03:57:35;8.35;98.75
67275;DHT22;55463;52.324;5.122;2024-02-04T04:00:03;8.35;98.89
67275;DHT22;55463;52.324;5.122;2024-02-04T04:02:29;8.34;98.78
67275;DHT22;55463;52.324;5.122;2024-02-04T04:04:55;8.31;98.47
67275;DHT22;55463;52.324;5.122;2024-02-04T04:07:20;8.31;97.66
67275;DHT22;55463;52.324;5.122;2024-02-04T04:09:45;8.32;97.24
67275;DHT22;55463;52.324;5.122;2024-02-04T04:12:11;8.28;97.93
67275;DHT22;55463;52.324;5.122;2024-02-04T04:14:36;8.32;98.01
67275;DHT22;55463;52.324;5.122;2024-02-04T04:17:02;8.27;97.46
67275;DHT22;55463;52.324;5.122;2024-02-04T04:19:27;8.25;97.32
67275;DHT22;55463;52.324;5.122;2024-02-04T04:21:53;8.25;96.85
67275;DHT22;55463;52.324;5.122;2024-02-04T04:24:19;8.25;97.25
67275;DHT22;55463;52.324;5.122;2024-02-04T04:26:47;8.24;97.10
67275;DHT22;55463;52.324;5.122;2024-02-04T04:29:12;8.24;97.18
67275;DHT22;55463;52.324;5.122;2024-02-04T04:31:38;8.22;96.43
67275;DHT22;55463;52.324;5.122;2024-02-04T04:34:03;8.22;97.38
67275;DHT22;55463;52.324;5.122;2024-02-04T04:36:29;8.24;97.58
67275;DHT22;55463;52.324;5.122;2024-02-04T04:38:54;8.21;97.73
67275;DHT22;55463;52.324;5.122;2024-02-04T04:41:20;8.20;97.96
67275;DHT22;55463;52.324;5.122;2024-02-04T04:43:45;8.21;97.46
67275;DHT22;55463;52.324;5.122;2024-02-04T04:46:11;8.22;97.71
67275;DHT22;55463;52.324;5.122;2024-02-04T04:48:36;8.21;97.75
67275;DHT22;55463;52.324;5.122;2024-02-04T04:51:02;8.21;97.89
67275;DHT22;55463;52.324;5.122;2024-02-04T04:53:27;8.20;98.03
67275;DHT22;55463;52.324;5.122;2024-02-04T04:55:53;8.20;97.96
67275;DHT22;55463;52.324;5.122;2024-02-04T04:58:18;8.20;98.28
67275;DHT22;55463;52.324;5.122;2024-02-04T05:00:44;8.21;98.44
67275;DHT22;55463;52.324;5.122;2024-02-04T05:03:09;8.18;98.38
67275;DHT22;55463;52.324;5.122;2024-02-04T05:05:35;8.24;98.52
67275;DHT22;55463;52.324;5.122;2024-02-04T05:08:00;8.24;98.38
67275;DHT22;55463;52.324;5.122;2024-02-04T05:10:26;8.24;98.64
67275;DHT22;55463;52.324;5.122;2024-02-04T05:12:51;8.24;98.67
67275;DHT22;55463;52.324;5.122;2024-02-04T05:15:17;8.24;98.79
67275;DHT22;55463;52.324;5.122;2024-02-04T05:17:42;8.25;98.93
67275;DHT22;55463;52.324;5.122;2024-02-04T05:20:08;8.24;99.11
67275;DHT22;55463;52.324;5.122;2024-02-04T05:22:34;8.24;99.17
67275;DHT22;55463;52.324;5.122;2024-02-04T05:24:59;8.29;99.28
67275;DHT22;55463;52.324;5.122;2024-02-04T05:27:25;8.28;99.23
67275;DHT22;55463;52.324;5.122;2024-02-04T05:29:51;8.31;99.36
67275;DHT22;55463;52.324;5.122;2024-02-04T05:32:16;8.29;99.52
67275;DHT22;55463;52.324;5.122;2024-02-04T05:34:42;8.31;99.51
67275;DHT22;55463;52.324;5.122;2024-02-04T05:37:07;8.31;99.73
67275;DHT22;55463;52.324;5.122;2024-02-04T05:39:33;8.29;99.86
67275;DHT22;55463;52.324;5.122;2024-02-04T05:41:58;8.29;99.99
67275;DHT22;55463;52.324;5.122;2024-02-04T05:44:24;8.29;99.90
67275;DHT22;55463;52.324;5.122;2024-02-04T05:46:49;8.32;99.99
67275;DHT22;55463;52.324;5.122;2024-02-04T05:49:15;8.32;99.99
67275;DHT22;55463;52.324;5.122;2024-02-04T05:51:41;8.32;99.92
67275;DHT22;55463;52.324;5.122;2024-02-04T05:54:07;8.34;99.90
67275;DHT22;55463;52.324;5.122;2024-02-04T05:56:33;8.34;99.99
67275;DHT22;55463;52.324;5.122;2024-02-04T05:58:59;8.34;99.92
67275;DHT22;55463;52.324;5.122;2024-02-04T06:01:24;8.31;99.99
67275;DHT22;55463;52.324;5.122;2024-02-04T06:03:50;8.35;99.87
67275;DHT22;55463;52.324;5.122;2024-02-04T06:06:16;8.32;99.99
67275;DHT22;55463;52.324;5.122;2024-02-04T06:08:42;8.35;99.92
67275;DHT22;55463;52.324;5.122;2024-02-04T06:11:14;8.32;99.93
67275;DHT22;55463;52.324;5.122;2024-02-04T06:13:41;8.35;99.90
67275;DHT22;55463;52.324;5.122;2024-02-04T06:16:07;8.37;99.82
67275;DHT22;55463;52.324;5.122;2024-02-04T06:18:32;8.35;99.99
67275;DHT22;55463;52.324;5.122;2024-02-04T06:20:58;8.38;99.99
67275;DHT22;55463;52.324;5.122;2024-02-04T06:23:23;8.37;99.99
67275;DHT22;55463;52.324;5.122;2024-02-04T06:25:49;8.35;99.99
67275;DHT22;55463;52.324;5.122;2024-02-04T06:28:14;8.38;99.99
67275;DHT22;55463;52.324;5.122;2024-02-04T06:30:40;8.37;99.99
67275;DHT22;55463;52.324;5.122;2024-02-04T06:33:05;8.39;99.99
67275;DHT22;55463;52.324;5.122;2024-02-04T06:35:32;8.37;99.99
67275;DHT22;55463;52.324;5.122;2024-02-04T06:37:57;8.39;99.99
67275;DHT22;55463;52.324;5.122;2024-02-04T06:40:23;8.38;99.99
67275;DHT22;55463;52.324;5.122;2024-02-04T06:42:56;8.38;99.99
67275;DHT22;55463;52.324;5.122;2024-02-04T06:45:22;8.39;99.99
67275;DHT22;55463;52.324;5.122;2024-02-04T06:47:50;8.42;99.99
67275;DHT22;55463;52.324;5.122;2024-02-04T06:50:20;8.42;99.99
67275;DHT22;55463;52.324;5.122;2024-02-04T06:52:46;8.44;99.99
67275;DHT22;55463;52.324;5.122;2024-02-04T06:55:11;8.45;99.99
67275;DHT22;55463;52.324;5.122;2024-02-04T06:57:37;8.46;99.99
67275;DHT22;55463;52.324;5.122;2024-02-04T07:00:03;8.46;99.99
67275;DHT22;55463;52.324;5.122;2024-02-04T07:02:34;8.48;99.99
67275;DHT22;55463;52.324;5.122;2024-02-04T07:05:03;8.50;99.99
67275;DHT22;55463;52.324;5.122;2024-02-04T07:07:32;8.53;99.99
67275;DHT22;55463;52.324;5.122;2024-02-04T07:09:58;8.52;99.99
67275;DHT22;55463;52.324;5.122;2024-02-04T07:12:24;8.59;99.99
67275;DHT22;55463;52.324;5.122;2024-02-04T07:14:49;8.59;99.99
67275;DHT22;55463;52.324;5.122;2024-02-04T07:17:17;8.59;99.99
67275;DHT22;55463;52.324;5.122;2024-02-04T07:19:43;8.63;99.99
67275;DHT22;55463;52.324;5.122;2024-02-04T07:22:09;8.66;99.99
67275;DHT22;55463;52.324;5.122;2024-02-04T07:24:34;8.72;99.99
67275;DHT22;55463;52.324;5.122;2024-02-04T07:27:00;8.77;99.99
67275;DHT22;55463;52.324;5.122;2024-02-04T07:29:26;8.81;99.99
67275;DHT22;55463;52.324;5.122;2024-02-04T07:31:51;8.88;99.99
67275;DHT22;55463;52.324;5.122;2024-02-04T07:34:17;8.94;99.99
67275;DHT22;55463;52.324;5.122;2024-02-04T07:36:46;8.97;99.99
67275;DHT22;55463;52.324;5.122;2024-02-04T07:39:11;9.04;99.99
67275;DHT22;55463;52.324;5.122;2024-02-04T07:41:42;9.12;99.99
67275;DHT22;55463;52.324;5.122;2024-02-04T07:44:10;9.18;99.99
67275;DHT22;55463;52.324;5.122;2024-02-04T07:46:43;9.24;99.99
67275;DHT22;55463;52.324;5.122;2024-02-04T07:49:09;9.27;99.99
67275;DHT22;55463;52.324;5.122;2024-02-04T07:51:34;9.28;99.99
67275;DHT22;55463;52.324;5.122;2024-02-04T07:54:01;9.32;99.99
67275;DHT22;55463;52.324;5.122;2024-02-04T07:56:29;9.32;99.99
67275;DHT22;55463;52.324;5.122;2024-02-04T07:58:55;9.36;99.99
67275;DHT22;55463;52.324;5.122;2024-02-04T08:01:23;9.42;99.99
67275;DHT22;55463;52.324;5.122;2024-02-04T08:03:53;9.43;99.99
67275;DHT22;55463;52.324;5.122;2024-02-04T08:06:24;9.49;99.99
67275;DHT22;55463;52.324;5.122;2024-02-04T08:08:50;9.45;99.99
67275;DHT22;55463;52.324;5.122;2024-02-04T08:11:16;9.43;99.99
67275;DHT22;55463;52.324;5.122;2024-02-04T08:13:44;9.45;99.99
67275;DHT22;55463;52.324;5.122;2024-02-04T08:16:10;9.46;99.99
67275;DHT22;55463;52.324;5.122;2024-02-04T08:18:36;9.48;99.99
67275;DHT22;55463;52.324;5.122;2024-02-04T08:21:02;9.48;99.99
67275;DHT22;55463;52.324;5.122;2024-02-04T08:23:27;9.48;99.99
67275;DHT22;55463;52.324;5.122;2024-02-04T08:25:56;9.50;99.99
67275;DHT22;55463;52.324;5.122;2024-02-04T08:28:23;9.52;99.89
67275;DHT22;55463;52.324;5.122;2024-02-04T08:30:55;9.53;99.83
67275;DHT22;55463;52.324;5.122;2024-02-04T08:33:20;9.56;99.71
67275;DHT22;55463;52.324;5.122;2024-02-04T08:35:56;9.59;99.58
67275;DHT22;55463;52.324;5.122;2024-02-04T08:38:22;9.57;99.79
67275;DHT22;55463;52.324;5.122;2024-02-04T08:40:48;9.56;99.79
67275;DHT22;55463;52.324;5.122;2024-02-04T08:43:13;9.56;99.84
67275;DHT22;55463;52.324;5.122;2024-02-04T08:45:39;9.60;99.98
67275;DHT22;55463;52.324;5.122;2024-02-04T08:48:05;9.60;99.99
67275;DHT22;55463;52.324;5.122;2024-02-04T08:50:30;9.60;99.99
67275;DHT22;55463;52.324;5.122;2024-02-04T08:52:56;9.60;99.99
67275;DHT22;55463;52.324;5.122;2024-02-04T08:55:21;9.65;99.99
67275;DHT22;55463;52.324;5.122;2024-02-04T08:57:47;9.65;99.99
67275;DHT22;55463;52.324;5.122;2024-02-04T09:00:14;9.65;99.99
67275;DHT22;55463;52.324;5.122;2024-02-04T09:02:40;9.67;99.99
67275;DHT22;55463;52.324;5.122;2024-02-04T09:05:06;9.73;99.99
67275;DHT22;55463;52.324;5.122;2024-02-04T09:07:32;9.74;99.99
67275;DHT22;55463;52.324;5.122;2024-02-04T09:09:57;9.82;99.99
67275;DHT22;55463;52.324;5.122;2024-02-04T09:12:26;9.84;99.99
67275;DHT22;55463;52.324;5.122;2024-02-04T09:14:52;9.89;99.99
67275;DHT22;55463;52.324;5.122;2024-02-04T09:17:20;9.91;99.99
67275;DHT22;55463;52.324;5.122;2024-02-04T09:19:46;9.97;99.99
67275;DHT22;55463;52.324;5.122;2024-02-04T09:22:11;10.01;99.99
67275;DHT22;55463;52.324;5.122;2024-02-04T09:24:37;10.05;99.99
67275;DHT22;55463;52.324;5.122;2024-02-04T09:27:03;10.08;99.99
67275;DHT22;55463;52.324;5.122;2024-02-04T09:29:29;10.11;99.99
67275;DHT22;55463;52.324;5.122;2024-02-04T09:31:55;10.17;99.99
67275;DHT22;55463;52.324;5.122;2024-02-04T09:34:20;10.18;99.99
67275;DHT22;55463;52.324;5.122;2024-02-04T09:36:46;10.18;99.99
67275;DHT22;55463;52.324;5.122;2024-02-04T09:39:12;10.21;99.99
67275;DHT22;55463;52.324;5.122;2024-02-04T09:41:38;10.21;99.99
67275;DHT22;55463;52.324;5.122;2024-02-04T09:44:04;10.27;99.99
67275;DHT22;55463;52.324;5.122;2024-02-04T09:46:30;10.32;99.99
67275;DHT22;55463;52.324;5.122;2024-02-04T09:48:59;10.35;99.99
67275;DHT22;55463;52.324;5.122;2024-02-04T09:51:27;10.35;99.99
67275;DHT22;55463;52.324;5.122;2024-02-04T09:53:53;10.38;99.78
67275;DHT22;55463;52.324;5.122;2024-02-04T09:56:22;10.41;99.76
67275;DHT22;55463;52.324;5.122;2024-02-04T09:58:49;10.41;99.78
67275;DHT22;55463;52.324;5.122;2024-02-04T10:01:19;10.42;99.91
67275;DHT22;55463;52.324;5.122;2024-02-04T10:03:44;10.44;99.69
67275;DHT22;55463;52.324;5.122;2024-02-04T10:06:12;10.45;99.34
67275;DHT22;55463;52.324;5.122;2024-02-04T10:08:37;10.45;99.41
67275;DHT22;55463;52.324;5.122;2024-02-04T10:11:03;10.45;99.44
67275;DHT22;55463;52.324;5.122;2024-02-04T10:13:29;10.46;99.38
67275;DHT22;55463;52.324;5.122;2024-02-04T10:15:55;10.49;99.31
67275;DHT22;55463;52.324;5.122;2024-02-04T10:18:23;10.48;99.11
67275;DHT22;55463;52.324;5.122;2024-02-04T10:20:51;10.49;98.75
67275;DHT22;55463;52.324;5.122;2024-02-04T10:23:17;10.50;98.96
67275;DHT22;55463;52.324;5.122;2024-02-04T10:25:42;10.55;98.84
67275;DHT22;55463;52.324;5.122;2024-02-04T10:28:08;10.55;99.10
67275;DHT22;55463;52.324;5.122;2024-02-04T10:30:34;10.52;99.12
67275;DHT22;55463;52.324;5.122;2024-02-04T10:33:05;10.56;99.14
67275;DHT22;55463;52.324;5.122;2024-02-04T10:35:30;10.56;99.06
67275;DHT22;55463;52.324;5.122;2024-02-04T10:37:59;10.59;99.24
67275;DHT22;55463;52.324;5.122;2024-02-04T10:40:24;10.63;99.03
67275;DHT22;55463;52.324;5.122;2024-02-04T10:42:50;10.62;98.97
67275;DHT22;55463;52.324;5.122;2024-02-04T10:45:18;10.67;99.12
67275;DHT22;55463;52.324;5.122;2024-02-04T10:47:52;10.69;99.12
67275;DHT22;55463;52.324;5.122;2024-02-04T10:50:21;10.70;98.81
67275;DHT22;55463;52.324;5.122;2024-02-04T10:53:03;10.76;99.04
67275;DHT22;55463;52.324;5.122;2024-02-04T10:55:30;10.70;99.20
67275;DHT22;55463;52.324;5.122;2024-02-04T10:58:01;10.74;99.47
67275;DHT22;55463;52.324;5.122;2024-02-04T11:00:28;10.73;99.47
67275;DHT22;55463;52.324;5.122;2024-02-04T11:02:54;10.72;99.40
67275;DHT22;55463;52.324;5.122;2024-02-04T11:05:24;10.72;99.87
67275;DHT22;55463;52.324;5.122;2024-02-04T11:07:51;10.69;99.99
67275;DHT22;55463;52.324;5.122;2024-02-04T11:10:17;10.66;99.99
67275;DHT22;55463;52.324;5.122;2024-02-04T11:12:44;10.63;99.99
67275;DHT22;55463;52.324;5.122;2024-02-04T11:15:13;10.59;99.99
67275;DHT22;55463;52.324;5.122;2024-02-04T11:23:36;10.53;99.99
67275;DHT22;55463;52.324;5.122;2024-02-04T11:26:04;10.48;99.99
67275;DHT22;55463;52.324;5.122;2024-02-04T11:28:33;10.48;99.99
67275;DHT22;55463;52.324;5.122;2024-02-04T11:30:59;10.50;99.99
67275;DHT22;55463;52.324;5.122;2024-02-04T11:33:27;10.53;99.99
67275;DHT22;55463;52.324;5.122;2024-02-04T11:36:12;10.52;99.99
67275;DHT22;55463;52.324;5.122;2024-02-04T11:38:37;10.53;99.99
67275;DHT22;55463;52.324;5.122;2024-02-04T11:41:04;10.56;99.99
67275;DHT22;55463;52.324;5.122;2024-02-04T11:43:32;10.57;99.99
67275;DHT22;55463;52.324;5.122;2024-02-04T11:46:16;10.63;99.99
67275;DHT22;55463;52.324;5.122;2024-02-04T11:49:13;10.63;99.99
67275;DHT22;55463;52.324;5.122;2024-02-04T11:51:41;10.63;99.99
67275;DHT22;55463;52.324;5.122;2024-02-04T11:54:09;10.62;99.99
67275;DHT22;55463;52.324;5.122;2024-02-04T11:56:35;10.64;99.99
67275;DHT22;55463;52.324;5.122;2024-02-04T11:59:01;10.56;99.99
67275;DHT22;55463;52.324;5.122;2024-02-04T12:01:27;10.56;99.99
67275;DHT22;55463;52.324;5.122;2024-02-04T12:03:56;10.53;99.99
67275;DHT22;55463;52.324;5.122;2024-02-04T12:06:21;10.55;99.99
67275;DHT22;55463;52.324;5.122;2024-02-04T12:08:47;10.56;99.99
67275;DHT22;55463;52.324;5.122;2024-02-04T12:11:16;10.55;99.99
67275;DHT22;55463;52.324;5.122;2024-02-04T12:13:44;10.52;99.99
67275;DHT22;55463;52.324;5.122;2024-02-04T12:16:10;10.52;99.99
67275;DHT22;55463;52.324;5.122;2024-02-04T12:18:36;10.50;99.99
67275;DHT22;55463;52.324;5.122;2024-02-04T12:21:03;10.55;99.99
67275;DHT22;55463;52.324;5.122;2024-02-04T12:23:29;10.55;99.99
67275;DHT22;55463;52.324;5.122;2024-02-04T12:25:55;10.53;99.99
67275;DHT22;55463;52.324;5.122;2024-02-04T12:28:20;10.52;99.99
67275;DHT22;55463;52.324;5.122;2024-02-04T12:30:53;10.57;99.99
67275;DHT22;55463;52.324;5.122;2024-02-04T12:33:20;10.57;99.99
67275;DHT22;55463;52.324;5.122;2024-02-04T12:35:52;10.55;99.99
67275;DHT22;55463;52.324;5.122;2024-02-04T12:38:18;10.55;99.99
67275;DHT22;55463;52.324;5.122;2024-02-04T12:40:43;10.53;99.99
67275;DHT22;55463;52.324;5.122;2024-02-04T12:43:11;10.55;99.99
67275;DHT22;55463;52.324;5.122;2024-02-04T12:45:36;10.52;99.99
67275;DHT22;55463;52.324;5.122;2024-02-04T12:48:02;10.50;99.99
67275;DHT22;55463;52.324;5.122;2024-02-04T12:50:28;10.48;99.99
67275;DHT22;55463;52.324;5.122;2024-02-04T12:53:07;10.44;99.99
67275;DHT22;55463;52.324;5.122;2024-02-04T12:55:37;10.41;99.99
67275;DHT22;55463;52.324;5.122;2024-02-04T12:58:08;10.39;99.99
67275;DHT22;55463;52.324;5.122;2024-02-04T13:00:35;10.41;99.99
67275;DHT22;55463;52.324;5.122;2024-02-04T13:03:03;10.36;99.99
67275;DHT22;55463;52.324;5.122;2024-02-04T13:05:28;10.36;99.99
67275;DHT22;55463;52.324;5.122;2024-02-04T13:07:59;10.41;99.99
67275;DHT22;55463;52.324;5.122;2024-02-04T13:10:28;10.41;99.99
67275;DHT22;55463;52.324;5.122;2024-02-04T13:13:09;10.44;99.99
67275;DHT22;55463;52.324;5.122;2024-02-04T13:15:43;10.46;99.99
67275;DHT22;55463;52.324;5.122;2024-02-04T13:18:12;10.52;99.99
67275;DHT22;55463;52.324;5.122;2024-02-04T13:20:41;10.52;99.99
67275;DHT22;55463;52.324;5.122;2024-02-04T13:23:10;10.53;99.99
67275;DHT22;55463;52.324;5.122;2024-02-04T13:25:35;10.60;99.99
67275;DHT22;55463;52.324;5.122;2024-02-04T13:28:01;10.60;99.99
67275;DHT22;55463;52.324;5.122;2024-02-04T13:30:26;10.60;99.99
67275;DHT22;55463;52.324;5.122;2024-02-04T13:32:58;10.60;99.99
67275;DHT22;55463;52.324;5.122;2024-02-04T13:35:24;10.63;99.99
67275;DHT22;55463;52.324;5.122;2024-02-04T13:37:55;10.64;99.99
67275;DHT22;55463;52.324;5.122;2024-02-04T13:40:24;10.64;99.99
67275;DHT22;55463;52.324;5.122;2024-02-04T13:42:49;10.69;99.99
67275;DHT22;55463;52.324;5.122;2024-02-04T13:45:15;10.64;99.99
67275;DHT22;55463;52.324;5.122;2024-02-04T13:47:43;10.64;99.99
67275;DHT22;55463;52.324;5.122;2024-02-04T13:50:12;10.63;99.99
67275;DHT22;55463;52.324;5.122;2024-02-04T13:52:56;10.64;99.99
67275;DHT22;55463;52.324;5.122;2024-02-04T13:55:25;10.64;99.99
67275;DHT22;55463;52.324;5.122;2024-02-04T13:57:56;10.64;99.99
67275;DHT22;55463;52.324;5.122;2024-02-04T14:00:26;10.69;99.99
67275;DHT22;55463;52.324;5.122;2024-02-04T14:02:52;10.64;99.99
67275;DHT22;55463;52.324;5.122;2024-02-04T14:05:17;10.66;99.99
67275;DHT22;55463;52.324;5.122;2024-02-04T14:07:46;10.66;99.99
67275;DHT22;55463;52.324;5.122;2024-02-04T14:10:17;10.67;99.99
67275;DHT22;55463;52.324;5.122;2024-02-04T14:12:43;10.64;99.99
67275;DHT22;55463;52.324;5.122;2024-02-04T14:15:12;10.67;99.99
67275;DHT22;55463;52.324;5.122;2024-02-04T14:17:40;10.66;99.99
67275;DHT22;55463;52.324;5.122;2024-02-04T14:20:06;10.66;99.99
67275;DHT22;55463;52.324;5.122;2024-02-04T14:22:32;10.64;99.99
67275;DHT22;55463;52.324;5.122;2024-02-04T14:24:58;10.63;99.99
67275;DHT22;55463;52.324;5.122;2024-02-04T14:27:26;10.66;99.99
67275;DHT22;55463;52.324;5.122;2024-02-04T14:29:55;10.64;99.99
67275;DHT22;55463;52.324;5.122;2024-02-04T14:32:24;10.67;99.99
67275;DHT22;55463;52.324;5.122;2024-02-04T14:34:52;10.73;99.99
67275;DHT22;55463;52.324;5.122;2024-02-04T14:37:22;10.74;99.99
67275;DHT22;55463;52.324;5.122;2024-02-04T14:39:50;10.77;99.99
67275;DHT22;55463;52.324;5.122;2024-02-04T14:42:16;10.81;99.99
67275;DHT22;55463;52.324;5.122;2024-02-04T14:44:47;10.84;99.99
67275;DHT22;55463;52.324;5.122;2024-02-04T14:47:15;10.83;99.99
67275;DHT22;55463;52.324;5.122;2024-02-04T14:49:44;10.81;99.99
67275;DHT22;55463;52.324;5.122;2024-02-04T14:52:11;10.81;99.99
67275;DHT22;55463;52.324;5.122;2024-02-04T14:54:45;10.80;99.99
67275;DHT22;55463;52.324;5.122;2024-02-04T14:57:11;10.81;99.99
67275;DHT22;55463;52.324;5.122;2024-02-04T14:59:39;10.80;99.99
67275;DHT22;55463;52.324;5.122;2024-02-04T15:02:08;10.80;99.99
67275;DHT22;55463;52.324;5.122;2024-02-04T15:04:38;10.83;99.95
67275;DHT22;55463;52.324;5.122;2024-02-04T15:07:04;10.80;99.99
67275;DHT22;55463;52.324;5.122;2024-02-04T15:09:38;10.83;99.99
67275;DHT22;55463;52.324;5.122;2024-02-04T15:12:04;10.80;99.99
67275;DHT22;55463;52.324;5.122;2024-02-04T15:17:26;10.81;99.92
67275;DHT22;55463;52.324;5.122;2024-02-04T15:19:55;10.81;99.65
67275;DHT22;55463;52.324;5.122;2024-02-04T15:22:21;10.85;99.47
67275;DHT22;55463;52.324;5.122;2024-02-04T15:24:53;10.84;99.51
67275;DHT22;55463;52.324;5.122;2024-02-04T15:27:26;10.83;99.63
67275;DHT22;55463;52.324;5.122;2024-02-04T15:30:24;10.81;99.72
67275;DHT22;55463;52.324;5.122;2024-02-04T15:32:53;10.84;99.73
67275;DHT22;55463;52.324;5.122;2024-02-04T15:35:26;10.83;99.63
67275;DHT22;55463;52.324;5.122;2024-02-04T15:38:10;10.79;99.84
67275;DHT22;55463;52.324;5.122;2024-02-04T15:44:20;10.81;99.85
67275;DHT22;55463;52.324;5.122;2024-02-04T15:46:54;10.85;99.74
67275;DHT22;55463;52.324;5.122;2024-02-04T15:49:23;10.89;99.80
67275;DHT22;55463;52.324;5.122;2024-02-04T15:51:49;10.84;99.76
67275;DHT22;55463;52.324;5.122;2024-02-04T15:54:18;10.84;99.71
67275;DHT22;55463;52.324;5.122;2024-02-04T15:56:48;10.83;99.70